createdAt,value
2019-04-10T00:01:59.366Z,94037.48
2019-04-10T00:04:28.041Z,94037.55
2019-04-10T00:07:10.501Z,94047.75
2019-04-10T00:09:27.353Z,94031.81
2019-04-10T00:11:55.244Z,94030.38
2019-04-10T00:14:22.747Z,94022.88
2019-04-10T00:16:50.178Z,94037.61
2019-04-10T00:19:18.259Z,94026.47
2019-04-10T00:21:45.941Z,94036.47
2019-04-10T00:24:13.601Z,94030.30
2019-04-10T00:26:41.695Z,94032.66
2019-04-10T00:29:09.161Z,94018.34
2019-04-10T00:31:36.572Z,94022.59
2019-04-10T00:34:05.270Z,94014.38
2019-04-10T00:36:33.166Z,94010.08
2019-04-10T00:39:00.768Z,94011.91
2019-04-10T00:41:28.253Z,94014.38
2019-04-10T00:43:57.290Z,94014.53
2019-04-10T00:46:25.041Z,94006.02
2019-04-10T00:48:52.497Z,94022.54
2019-04-10T00:51:19.987Z,94022.09
2019-04-10T00:53:47.584Z,94017.70
2019-04-10T00:56:15.173Z,94020.11
2019-04-10T00:58:43.678Z,94018.28
2019-04-10T01:01:11.815Z,94018.23
2019-04-10T01:03:42.543Z,94017.25
2019-04-10T01:06:10.204Z,94022.34
2019-04-10T01:08:37.700Z,94014.35
2019-04-10T01:11:05.177Z,94016.23
2019-04-10T01:13:32.751Z,94017.31
2019-04-10T01:16:00.733Z,94002.65
2019-04-10T01:18:28.983Z,94007.99
2019-04-10T01:20:56.556Z,94008.74
2019-04-10T01:23:24.641Z,94005.41
2019-04-10T01:25:52.232Z,94004.81
2019-04-10T01:28:20.569Z,94002.95
2019-04-10T01:30:48.656Z,94007.48
2019-04-10T01:33:16.557Z,94001.59
2019-04-10T01:35:44.608Z,94000.83
2019-04-10T01:38:13.405Z,94002.22
2019-04-10T01:40:41.372Z,93996.30
2019-04-10T01:43:13.308Z,94002.78
2019-04-10T01:45:38.372Z,94002.64
2019-04-10T01:48:06.044Z,94000.63
2019-04-10T01:50:34.670Z,93999.95
2019-04-10T01:53:02.320Z,93988.70
2019-04-10T01:55:32.468Z,94002.64
2019-04-10T01:58:00.997Z,93996.20
2019-04-10T02:00:29.818Z,94004.20
2019-04-10T02:02:57.945Z,93998.12
2019-04-10T02:05:25.518Z,93997.11
2019-04-10T02:08:05.708Z,93994.59
2019-04-10T02:10:22.335Z,94004.69
2019-04-10T02:12:50.836Z,94003.05
2019-04-10T02:15:19.612Z,93991.74
2019-04-10T02:17:47.210Z,94002.02
2019-04-10T02:20:14.906Z,93998.59
2019-04-10T02:22:43.426Z,93998.25
2019-04-10T02:25:11.612Z,93992.16
2019-04-10T02:27:39.253Z,93992.09
2019-04-10T02:30:10.330Z,93997.29
2019-04-10T02:32:39.212Z,93989.72
2019-04-10T02:35:10.593Z,93977.76
2019-04-10T02:37:37.482Z,93980.68
2019-04-10T02:40:08.895Z,93974.23
2019-04-10T02:42:36.295Z,93980.19
2019-04-10T02:45:05.973Z,93979.54
2019-04-10T02:47:34.739Z,93981.16
2019-04-10T02:50:03.636Z,93977.45
2019-04-10T02:52:32.946Z,93972.03
2019-04-10T02:55:02.020Z,93978.44
2019-04-10T02:57:31.519Z,93970.28
2019-04-10T03:00:00.854Z,93972.24
2019-04-10T03:02:29.397Z,93987.48
2019-04-10T03:04:59.375Z,93989.12
2019-04-10T03:07:28.360Z,93988.52
2019-04-10T03:10:08.779Z,93999.88
2019-04-10T03:12:25.884Z,93992.83
2019-04-10T03:14:54.894Z,93985.27
2019-04-10T03:17:22.698Z,93983.62
2019-04-10T03:19:50.170Z,93986.22
2019-04-10T03:22:18.719Z,93987.36
2019-04-10T03:24:46.495Z,93991.06
2019-04-10T03:27:14.258Z,93984.99
2019-04-10T03:29:42.243Z,93987.95
2019-04-10T03:32:31.126Z,93987.70
2019-04-10T03:35:00.867Z,93992.02
2019-04-10T03:37:28.589Z,93994.25
2019-04-10T03:39:57.289Z,94002.52
2019-04-10T03:42:25.280Z,94005.56
2019-04-10T03:44:52.863Z,94011.63
2019-04-10T03:47:20.535Z,94006.62
2019-04-10T03:49:47.929Z,94009.06
2019-04-10T03:52:15.383Z,94016.23
2019-04-10T03:54:43.913Z,94020.61
2019-04-10T03:57:12.117Z,94020.53
2019-04-10T03:59:40.723Z,94024.93
2019-04-10T04:02:08.990Z,94027.91
2019-04-10T04:04:37.461Z,94024.93
2019-04-10T04:07:05.126Z,94032.07
2019-04-10T04:09:32.598Z,94035.87
2019-04-10T04:12:00.298Z,94047.21
2019-04-10T04:14:28.469Z,94052.22
2019-04-10T04:16:56.210Z,94051.92
2019-04-10T04:19:24.136Z,94052.34
2019-04-10T04:21:52.359Z,94042.23
2019-04-10T04:24:25.022Z,94048.03
2019-04-10T04:26:53.128Z,94059.20
2019-04-10T04:29:20.652Z,94048.16
2019-04-10T04:31:48.562Z,94040.78
2019-04-10T04:34:16.920Z,94036.11
2019-04-10T04:36:45.348Z,94039.83
2019-04-10T04:39:21.706Z,94046.41
2019-04-10T04:41:42.906Z,94054.16
2019-04-10T04:44:10.535Z,94045.19
2019-04-10T04:46:40.716Z,94053.15
2019-04-10T04:49:09.525Z,94047.56
2019-04-10T04:51:37.420Z,94056.53
2019-04-10T04:54:05.191Z,94065.09
2019-04-10T04:56:33.760Z,94062.72
2019-04-10T04:59:01.529Z,94068.26
2019-04-10T05:01:29.674Z,94064.77
2019-04-10T05:03:58.061Z,94073.39
2019-04-10T05:06:26.553Z,94070.99
2019-04-10T05:08:54.823Z,94067.77
2019-04-10T05:11:22.417Z,94077.11
2019-04-10T05:13:50.987Z,94073.20
2019-04-10T05:16:18.748Z,94072.53
2019-04-10T05:18:46.209Z,94073.80
2019-04-10T05:21:13.820Z,94079.06
2019-04-10T05:23:41.286Z,94093.44
2019-04-10T05:26:08.800Z,94088.64
2019-04-10T05:28:36.311Z,94087.08
2019-04-10T05:31:03.872Z,94087.52
2019-04-10T05:33:31.298Z,94089.81
2019-04-10T05:35:59.228Z,94087.75
2019-04-10T05:38:27.052Z,94091.30
2019-04-10T05:40:55.177Z,94089.03
2019-04-10T05:43:22.751Z,94085.77
2019-04-10T05:45:50.698Z,94100.67
2019-04-10T05:48:20.983Z,94092.14
2019-04-10T05:50:56.430Z,94097.60
2019-04-10T05:53:18.359Z,94096.16
2019-04-10T05:55:47.234Z,94100.95
2019-04-10T05:58:15.472Z,94096.66
2019-04-10T06:00:43.106Z,94102.24
2019-04-10T06:03:10.700Z,94095.16
2019-04-10T06:05:38.328Z,94098.27
2019-04-10T06:08:05.845Z,94105.80
2019-04-10T06:10:34.263Z,94095.72
2019-04-10T06:13:02.655Z,94100.30
2019-04-10T06:15:30.784Z,94104.61
2019-04-10T06:17:58.787Z,94109.91
2019-04-10T06:20:26.393Z,94108.39
2019-04-10T06:22:54.899Z,94102.70
2019-04-10T06:25:24.777Z,94110.56
2019-04-10T06:27:52.684Z,94113.92
2019-04-10T06:30:20.581Z,94110.53
2019-04-10T06:32:48.448Z,94112.84
2019-04-10T06:35:16.099Z,94122.59
2019-04-10T06:37:43.598Z,94120.43
2019-04-10T06:40:18.766Z,94131.06
2019-04-10T06:42:48.600Z,94133.67
2019-04-10T06:45:11.364Z,94127.36
2019-04-10T06:47:38.995Z,94125.63
2019-04-10T06:50:06.598Z,94121.95
2019-04-10T06:52:34.559Z,94123.63
2019-04-10T06:55:03.022Z,94124.96
2019-04-10T06:57:30.607Z,94128.91
2019-04-10T06:59:59.748Z,94127.52
2019-04-10T07:02:30.847Z,94137.69
2019-04-10T07:05:04.985Z,94126.16
2019-04-10T07:07:40.673Z,94131.84
2019-04-10T07:09:57.139Z,94137.30
2019-04-10T07:12:29.780Z,94137.08
2019-04-10T07:14:58.067Z,94135.52
2019-04-10T07:17:25.004Z,94132.89
2019-04-10T07:19:53.460Z,94144.94
2019-04-10T07:22:20.985Z,94136.12
2019-04-10T07:24:48.493Z,94141.70
2019-04-10T07:27:16.185Z,94142.53
2019-04-10T07:29:44.509Z,94146.52
2019-04-10T07:32:13.339Z,94148.32
2019-04-10T07:34:40.909Z,94152.14
2019-04-10T07:37:10.713Z,94158.35
2019-04-10T07:39:37.780Z,94161.16
2019-04-10T07:42:06.210Z,94161.16
2019-04-10T07:44:33.736Z,94164.55
2019-04-10T07:47:01.308Z,94159.06
2019-04-10T07:49:31.171Z,94151.64
2019-04-10T07:51:58.666Z,94154.59
2019-04-10T07:54:26.749Z,94153.64
2019-04-10T07:56:54.509Z,94150.61
2019-04-10T07:59:21.974Z,94156.95
2019-04-10T08:01:49.527Z,94162.37
2019-04-10T08:04:18.148Z,94155.91
2019-04-10T08:06:46.888Z,94157.38
2019-04-10T08:09:14.741Z,94158.47
2019-04-10T08:11:42.558Z,94150.41
2019-04-10T08:14:10.663Z,94150.28
2019-04-10T08:16:39.395Z,94145.70
2019-04-10T08:19:08.183Z,94149.05
2019-04-10T08:21:35.922Z,94151.52
2019-04-10T08:24:04.424Z,94156.20
2019-04-10T08:26:32.522Z,94164.86
2019-04-10T08:29:01.282Z,94164.56
2019-04-10T08:31:29.104Z,94169.70
2019-04-10T08:33:56.823Z,94172.30
2019-04-10T08:36:25.506Z,94187.23
2019-04-10T08:38:53.209Z,94175.31
2019-04-10T08:41:21.302Z,94186.42
2019-04-10T08:43:48.824Z,94188.20
2019-04-10T08:46:17.451Z,94189.66
2019-04-10T08:48:45.222Z,94187.27
2019-04-10T08:51:12.822Z,94186.80
2019-04-10T08:53:40.403Z,94189.34
2019-04-10T08:56:07.998Z,94194.61
2019-04-10T08:58:35.490Z,94191.72
2019-04-10T09:01:03.109Z,94196.30
2019-04-10T09:03:30.992Z,94186.88
2019-04-10T09:05:58.801Z,94205.48
2019-04-10T09:08:26.709Z,94184.66
2019-04-10T09:10:54.568Z,94185.19
2019-04-10T09:13:22.217Z,94188.65
2019-04-10T09:15:49.996Z,94194.77
2019-04-10T09:18:17.961Z,94185.43
2019-04-10T09:20:46.811Z,94186.67
2019-04-10T09:23:25.029Z,94187.88
2019-04-10T09:25:43.853Z,94181.38
2019-04-10T09:28:11.458Z,94189.04
2019-04-10T09:30:39.166Z,94174.40
2019-04-10T09:33:18.994Z,94196.06
2019-04-10T09:35:36.367Z,94170.88
2019-04-10T09:38:04.252Z,94176.47
2019-04-10T09:40:32.106Z,94181.50
2019-04-10T09:42:59.839Z,94173.52
2019-04-10T09:45:28.431Z,94175.73
2019-04-10T09:47:56.019Z,94182.11
2019-04-10T09:50:24.743Z,94171.47
2019-04-10T09:52:53.033Z,94172.95
2019-04-10T09:55:20.487Z,94170.40
2019-04-10T09:57:48.000Z,94171.75
2019-04-10T10:00:15.862Z,94171.08
2019-04-10T10:02:43.414Z,94175.34
2019-04-10T10:05:11.178Z,94173.38
2019-04-10T10:07:39.100Z,94163.78
2019-04-10T10:10:08.861Z,94166.77
2019-04-10T10:12:36.583Z,94175.95
2019-04-10T10:15:05.202Z,94169.55
2019-04-10T10:17:32.881Z,94158.22
2019-04-10T10:20:01.701Z,94163.07
2019-04-10T10:22:30.639Z,94161.64
2019-04-10T10:24:59.366Z,94165.89
2019-04-10T10:27:27.014Z,94168.56
2019-04-10T10:29:55.964Z,94156.47
2019-04-10T10:32:24.725Z,94147.95
2019-04-10T10:34:52.505Z,94144.70
2019-04-10T10:37:20.053Z,94139.52
2019-04-10T10:39:47.703Z,94141.14
2019-04-10T10:42:15.858Z,94142.53
2019-04-10T10:44:43.418Z,94143.70
2019-04-10T10:47:11.767Z,94145.87
2019-04-10T10:49:40.220Z,94152.17
2019-04-10T10:52:08.960Z,94158.33
2019-04-10T10:54:36.968Z,94160.66
2019-04-10T10:57:04.828Z,94156.98
2019-04-10T10:59:33.435Z,94163.20
2019-04-10T11:02:02.292Z,94157.11
2019-04-10T11:04:29.842Z,94158.33
2019-04-10T11:09:28.421Z,94151.59
2019-04-10T11:11:56.030Z,94153.34
2019-04-10T11:14:23.707Z,94164.63
2019-04-10T11:16:51.664Z,94154.94
2019-04-10T11:19:19.845Z,94149.17
2019-04-10T11:21:47.477Z,94156.59
2019-04-10T11:24:15.586Z,94152.91
2019-04-10T11:26:44.007Z,94159.80
2019-04-10T11:29:11.847Z,94151.42
2019-04-10T11:31:39.688Z,94153.78
2019-04-10T11:34:08.299Z,94159.11
2019-04-10T11:36:36.900Z,94154.22
2019-04-10T11:39:17.134Z,94154.25
2019-04-10T11:41:37.434Z,94159.48
2019-04-10T11:44:08.167Z,94156.75
2019-04-10T11:46:38.687Z,94153.30
2019-04-10T11:49:07.478Z,94157.41
2019-04-10T11:51:36.744Z,94152.08
2019-04-10T11:54:08.610Z,94149.81
2019-04-10T11:56:35.689Z,94151.58
2019-04-10T11:59:05.788Z,94150.39
2019-04-10T12:01:34.769Z,94157.94
2019-04-10T12:04:06.713Z,94153.66
2019-04-10T12:06:33.942Z,94143.83
2019-04-10T12:09:26.411Z,94139.66
2019-04-10T12:11:32.907Z,94148.27
2019-04-10T12:14:00.883Z,94140.67
2019-04-10T12:16:29.400Z,94138.11
2019-04-10T12:18:57.327Z,94145.69
2019-04-10T12:21:26.169Z,94132.83
2019-04-10T12:23:53.762Z,94136.67
2019-04-10T12:26:21.299Z,94133.04
2019-04-10T12:28:49.913Z,94137.95
2019-04-10T12:31:17.726Z,94133.87
2019-04-10T12:33:46.504Z,94142.22
2019-04-10T12:36:14.421Z,94139.52
2019-04-10T12:38:41.944Z,94138.81
2019-04-10T12:41:09.477Z,94135.03
2019-04-10T12:43:37.016Z,94145.13
2019-04-10T12:46:04.780Z,94132.82
2019-04-10T12:48:32.264Z,94138.18
2019-04-10T12:50:59.856Z,94132.25
2019-04-10T12:53:27.585Z,94137.34
2019-04-10T12:55:55.028Z,94138.81
2019-04-10T12:58:22.653Z,94136.23
2019-04-10T13:00:50.586Z,94137.77
2019-04-10T13:03:18.785Z,94134.77
2019-04-10T13:05:47.382Z,94132.22
2019-04-10T13:08:21.796Z,94131.20
2019-04-10T13:10:45.569Z,94126.22
2019-04-10T13:13:13.679Z,94130.97
2019-04-10T13:15:41.430Z,94133.34
2019-04-10T13:18:09.129Z,94126.33
2019-04-10T13:20:37.641Z,94132.56
2019-04-10T13:23:05.341Z,94133.93
2019-04-10T13:25:34.405Z,94130.73
2019-04-10T13:28:03.308Z,94127.20
2019-04-10T13:30:44.085Z,94132.64
2019-04-10T13:33:00.450Z,94131.41
2019-04-10T13:35:28.429Z,94130.67
2019-04-10T13:37:56.915Z,94133.78
2019-04-10T13:40:24.411Z,94139.36
2019-04-10T13:42:51.966Z,94136.39
2019-04-10T13:45:19.469Z,94136.40
2019-04-10T13:47:48.256Z,94127.73
2019-04-10T13:50:16.806Z,94128.44
2019-04-10T13:52:50.701Z,94133.89
2019-04-10T13:55:17.355Z,94136.62
2019-04-10T13:57:46.637Z,94129.47
2019-04-10T14:00:28.449Z,94137.88
2019-04-10T14:02:56.308Z,94133.69
2019-04-10T14:05:24.669Z,94134.17
2019-04-10T14:07:53.319Z,94137.59
2019-04-10T14:10:21.040Z,94138.86
2019-04-10T14:12:49.324Z,94136.10
2019-04-10T14:15:18.082Z,94139.83
2019-04-10T14:17:46.047Z,94148.73
2019-04-10T14:20:15.893Z,94146.02
2019-04-10T14:22:54.463Z,94140.59
2019-04-10T14:25:40.263Z,94135.66
2019-04-10T14:28:09.044Z,94123.31
2019-04-10T14:30:39.750Z,94138.64
2019-04-10T14:33:07.378Z,94137.91
2019-04-10T14:35:35.596Z,94134.20
2019-04-10T14:38:05.128Z,94134.69
2019-04-10T14:40:33.741Z,94141.98
2019-04-10T14:43:01.359Z,94133.06
2019-04-10T14:45:29.720Z,94136.92
2019-04-10T14:47:58.258Z,94140.73
2019-04-10T14:50:26.186Z,94138.27
2019-04-10T14:52:53.859Z,94139.59
2019-04-10T14:55:21.999Z,94133.78
2019-04-10T14:57:50.836Z,94136.13
2019-04-10T15:00:37.413Z,94130.83
2019-04-10T15:03:05.019Z,94122.99
2019-04-10T15:05:43.299Z,94125.53
2019-04-10T15:08:03.714Z,94126.27
2019-04-10T15:10:31.329Z,94125.60
2019-04-10T15:13:07.518Z,94123.23
2019-04-10T15:15:28.364Z,94126.30
2019-04-10T15:17:56.807Z,94130.66
2019-04-10T15:20:25.068Z,94127.91
2019-04-10T15:22:52.749Z,94130.36
2019-04-10T15:25:20.238Z,94125.44
2019-04-10T15:27:47.716Z,94128.11
2019-04-10T15:30:18.106Z,94126.01
2019-04-10T15:32:45.551Z,94122.24
2019-04-10T15:35:13.145Z,94122.22
2019-04-10T15:37:41.610Z,94120.27
2019-04-10T15:40:18.142Z,94118.56
2019-04-10T15:42:40.593Z,94124.22
2019-04-10T15:45:18.320Z,94116.04
2019-04-10T15:47:52.479Z,94119.90
2019-04-10T15:50:16.047Z,94111.60
2019-04-10T15:52:43.675Z,94121.80
2019-04-10T15:55:13.346Z,94129.23
2019-04-10T15:57:49.134Z,94123.69
2019-04-10T16:00:12.671Z,94131.21
2019-04-10T16:02:40.917Z,94128.00
2019-04-10T16:05:09.094Z,94127.02
2019-04-10T16:07:36.650Z,94133.69
2019-04-10T16:10:25.358Z,94136.42
2019-04-10T16:12:53.494Z,94133.66
2019-04-10T16:15:21.575Z,94133.31
2019-04-10T16:18:13.693Z,94135.77
2019-04-10T16:20:41.475Z,94135.64
2019-04-10T16:23:33.490Z,94136.36
2019-04-10T16:26:01.075Z,94140.56
2019-04-10T16:28:29.304Z,94131.63
2019-04-10T16:30:57.374Z,94143.97
2019-04-10T16:33:25.507Z,94135.55
2019-04-10T16:35:53.177Z,94137.58
2019-04-10T16:38:21.261Z,94134.12
2019-04-10T16:40:49.124Z,94132.45
2019-04-10T16:43:16.960Z,94145.89
2019-04-10T16:45:44.782Z,94136.23
2019-04-10T16:48:12.836Z,94136.03
2019-04-10T16:50:40.919Z,94136.62
2019-04-10T16:53:09.647Z,94132.82
2019-04-10T16:55:37.669Z,94138.14
2019-04-10T16:58:05.487Z,94134.03
2019-04-10T17:00:32.978Z,94148.70
2019-04-10T17:03:01.942Z,94143.44
2019-04-10T17:05:30.629Z,94139.25
2019-04-10T17:07:59.506Z,94151.86
2019-04-10T17:10:29.221Z,94154.53
2019-04-10T17:12:58.236Z,94156.58
2019-04-10T17:15:26.117Z,94155.44
2019-04-10T17:17:54.813Z,94156.05
2019-04-10T17:20:24.473Z,94157.57
2019-04-10T17:22:52.212Z,94154.73
2019-04-10T17:25:20.141Z,94156.71
2019-04-10T17:27:48.013Z,94155.23
2019-04-10T17:30:16.172Z,94155.22
2019-04-10T17:32:44.663Z,94162.14
2019-04-10T17:35:13.679Z,94155.61
2019-04-10T17:37:42.216Z,94164.63
2019-04-10T17:40:25.043Z,94171.91
2019-04-10T17:42:44.413Z,94177.94
2019-04-10T17:45:12.491Z,94171.13
2019-04-10T17:47:40.940Z,94182.09
2019-04-10T17:50:12.032Z,94186.77
2019-04-10T17:52:40.721Z,94202.70
2019-04-10T17:55:09.390Z,94197.97
2019-04-10T17:57:40.420Z,94189.73
2019-04-10T18:00:16.910Z,94209.29
2019-04-10T18:02:44.383Z,94203.26
2019-04-10T18:05:12.667Z,94191.77
2019-04-10T18:07:40.566Z,94206.09
2019-04-10T18:10:08.628Z,94206.67
2019-04-10T18:12:36.306Z,94206.67
2019-04-10T18:15:04.236Z,94205.59
2019-04-10T18:17:31.652Z,94217.67
2019-04-10T18:19:59.121Z,94220.06
2019-04-10T18:22:26.835Z,94222.87
2019-04-10T18:24:54.341Z,94229.39
2019-04-10T18:27:22.545Z,94239.87
2019-04-10T18:29:50.176Z,94236.21
2019-04-10T18:32:17.978Z,94242.56
2019-04-10T18:34:46.478Z,94244.00
2019-04-10T18:37:16.576Z,94239.49
2019-04-10T18:39:43.466Z,94234.14
2019-04-10T18:42:11.840Z,94239.34
2019-04-10T18:44:39.611Z,94243.81
2019-04-10T18:47:07.534Z,94240.25
2019-04-10T18:49:35.753Z,94252.67
2019-04-10T18:52:03.520Z,94252.90
2019-04-10T18:54:31.919Z,94259.18
2019-04-10T18:56:59.792Z,94255.23
2019-04-10T18:59:51.125Z,94257.19
2019-04-10T19:02:41.186Z,94264.82
2019-04-10T19:05:16.632Z,94262.48
2019-04-10T19:07:44.125Z,94263.47
2019-04-10T19:10:12.890Z,94256.56
2019-04-10T19:12:41.097Z,94262.09
2019-04-10T19:15:09.096Z,94262.06
2019-04-10T19:17:37.126Z,94268.65
2019-04-10T19:20:07.701Z,94264.17
2019-04-10T19:22:35.305Z,94268.56
2019-04-10T19:25:03.206Z,94269.03
2019-04-10T19:27:31.789Z,94270.06
2019-04-10T19:29:59.527Z,94265.53
2019-04-10T19:32:35.562Z,94262.70
2019-04-10T19:35:04.649Z,94268.95
2019-04-10T19:37:32.510Z,94264.69
2019-04-10T19:40:00.162Z,94259.98
2019-04-10T19:42:27.777Z,94255.23
2019-04-10T19:44:55.309Z,94266.02
2019-04-10T19:47:23.050Z,94265.28
2019-04-10T19:49:50.903Z,94262.13
2019-04-10T19:52:18.600Z,94256.22
2019-04-10T19:54:47.159Z,94244.25
2019-04-10T19:57:15.285Z,94252.27
2019-04-10T19:59:44.070Z,94254.85
2019-04-10T20:02:12.843Z,94256.69
2019-04-10T20:04:40.935Z,94240.84
2019-04-10T20:07:09.041Z,94248.56
2019-04-10T20:09:36.825Z,94243.41
2019-04-10T20:12:04.444Z,94224.75
2019-04-10T20:14:32.596Z,94224.00
2019-04-10T20:17:00.101Z,94219.53
2019-04-10T20:19:28.696Z,94220.56
2019-04-10T20:21:56.718Z,94224.59
2019-04-10T20:24:25.038Z,94238.73
2019-04-10T20:26:53.894Z,94231.34
2019-04-10T20:29:21.571Z,94229.38
2019-04-10T20:31:51.278Z,94236.50
2019-04-10T20:34:19.197Z,94237.77
2019-04-10T20:36:47.056Z,94228.47
2019-04-10T20:39:14.944Z,94229.09
2019-04-10T20:41:49.672Z,94230.81
2019-04-10T20:44:12.825Z,94239.41
2019-04-10T20:46:40.538Z,94240.64
2019-04-10T20:49:08.578Z,94238.38
2019-04-10T20:51:37.742Z,94239.37
2019-04-10T20:54:06.547Z,94233.63
2019-04-10T20:56:34.869Z,94243.10
2019-04-10T20:59:03.485Z,94248.48
2019-04-10T21:01:33.040Z,94235.46
2019-04-10T21:04:00.902Z,94229.16
2019-04-10T21:06:29.732Z,94226.11
2019-04-10T21:08:58.717Z,94230.17
2019-04-10T21:11:27.121Z,94228.59
2019-04-10T21:13:54.972Z,94230.47
2019-04-10T21:16:23.113Z,94231.33
2019-04-10T21:18:51.637Z,94230.97
2019-04-10T21:21:19.610Z,94238.41
2019-04-10T21:23:48.701Z,94234.61
2019-04-10T21:26:16.540Z,94244.72
2019-04-10T21:28:44.322Z,94228.22
2019-04-10T21:31:39.183Z,94233.06
2019-04-10T21:34:16.193Z,94231.10
2019-04-10T21:36:45.508Z,94226.72
2019-04-10T21:39:13.941Z,94231.01
2019-04-10T21:41:41.934Z,94235.11
2019-04-10T21:44:11.356Z,94225.38
2019-04-10T21:46:40.993Z,94222.02
2019-04-10T21:49:08.575Z,94221.39
2019-04-10T21:51:36.983Z,94222.34
2019-04-10T21:54:04.685Z,94223.70
2019-04-10T21:56:33.046Z,94220.24
2019-04-10T21:59:01.132Z,94217.49
2019-04-10T22:01:30.435Z,94219.02
2019-04-10T22:03:58.477Z,94212.80
2019-04-10T22:06:49.451Z,94214.79
2019-04-10T22:09:43.227Z,94219.12
2019-04-10T22:12:25.871Z,94230.39
2019-04-10T22:14:48.152Z,94216.70
2019-04-10T22:17:16.969Z,94221.83
2019-04-10T22:19:45.222Z,94224.56
2019-04-10T22:22:12.902Z,94219.12
2019-04-10T22:24:40.596Z,94226.44
2019-04-10T22:27:09.267Z,94220.95
2019-04-10T22:29:36.943Z,94234.41
2019-04-10T22:32:04.651Z,94229.74
2019-04-10T22:34:32.117Z,94234.95
2019-04-10T22:37:00.148Z,94236.04
2019-04-10T22:39:27.741Z,94232.81
2019-04-10T22:41:55.282Z,94241.38
2019-04-10T22:44:33.820Z,94231.87
2019-04-10T22:46:52.366Z,94256.89
2019-04-10T22:49:20.249Z,94225.91
2019-04-10T22:51:49.600Z,94230.00
2019-04-10T22:54:17.904Z,94240.67
2019-04-10T22:56:45.796Z,94233.67
2019-04-10T22:59:13.742Z,94237.91
2019-04-10T23:01:41.153Z,94237.16
2019-04-10T23:04:08.624Z,94242.68
2019-04-10T23:06:37.304Z,94242.89
2019-04-10T23:09:08.421Z,94237.33
2019-04-10T23:11:41.871Z,94239.77
2019-04-10T23:14:06.722Z,94234.44
2019-04-10T23:16:34.381Z,94235.36
2019-04-10T23:19:02.127Z,94229.90
2019-04-10T23:21:30.410Z,94234.88
2019-04-10T23:23:59.031Z,94235.71
2019-04-10T23:26:26.628Z,94228.71
2019-04-10T23:28:54.091Z,94235.92
2019-04-10T23:31:21.698Z,94235.86
2019-04-10T23:33:50.265Z,94230.73
2019-04-10T23:36:18.125Z,94229.87
2019-04-10T23:38:45.943Z,94229.89
2019-04-10T23:41:13.697Z,94239.41
2019-04-10T23:43:41.942Z,94235.84
2019-04-10T23:46:11.241Z,94226.73
2019-04-10T23:48:39.154Z,94237.58
2019-04-10T23:51:07.329Z,94233.97
2019-04-10T23:53:34.834Z,94236.83
2019-04-10T23:56:02.611Z,94233.63
2019-04-10T23:58:30.248Z,94233.25
